sensor_id;sensor_type;location;lat;lon;timestamp;P1;durP1;ratioP1;P2;durP2;ratioP2
9763;SDS011;4921;43.214;27.936;2022-12-07T00:01:25;4.03;;;1.90;;
9763;SDS011;4921;43.214;27.936;2022-12-07T00:03:55;1.83;;;1.60;;
9763;SDS011;4921;43.214;27.936;2022-12-07T00:06:29;3.87;;;2.27;;
9763;SDS011;4921;43.214;27.936;2022-12-07T00:08:56;2.00;;;1.90;;
9763;SDS011;4921;43.214;27.936;2022-12-07T00:11:23;4.83;;;1.77;;
9763;SDS011;4921;43.214;27.936;2022-12-07T00:13:51;5.53;;;2.17;;
9763;SDS011;4921;43.214;27.936;2022-12-07T00:16:19;2.03;;;1.60;;
9763;SDS011;4921;43.214;27.936;2022-12-07T00:18:47;3.93;;;1.90;;
9763;SDS011;4921;43.214;27.936;2022-12-07T00:21:16;2.00;;;1.80;;
9763;SDS011;4921;43.214;27.936;2022-12-07T00:23:45;4.00;;;2.40;;
9763;SDS011;4921;43.214;27.936;2022-12-07T00:26:14;3.83;;;2.07;;
9763;SDS011;4921;43.214;27.936;2022-12-07T00:28:44;4.23;;;2.10;;
9763;SDS011;4921;43.214;27.936;2022-12-07T00:31:12;4.63;;;2.30;;
9763;SDS011;4921;43.214;27.936;2022-12-07T00:33:40;6.03;;;2.50;;
9763;SDS011;4921;43.214;27.936;2022-12-07T00:36:08;6.17;;;2.40;;
9763;SDS011;4921;43.214;27.936;2022-12-07T00:38:38;2.87;;;2.10;;
9763;SDS011;4921;43.214;27.936;2022-12-07T00:41:06;2.57;;;2.33;;
9763;SDS011;4921;43.214;27.936;2022-12-07T00:43:36;3.00;;;2.20;;
9763;SDS011;4921;43.214;27.936;2022-12-07T00:46:03;3.80;;;2.43;;
9763;SDS011;4921;43.214;27.936;2022-12-07T00:48:30;4.00;;;2.23;;
9763;SDS011;4921;43.214;27.936;2022-12-07T00:50:58;9.03;;;2.20;;
9763;SDS011;4921;43.214;27.936;2022-12-07T00:53:25;3.50;;;2.30;;
9763;SDS011;4921;43.214;27.936;2022-12-07T00:55:54;3.67;;;2.27;;
9763;SDS011;4921;43.214;27.936;2022-12-07T00:58:22;3.63;;;2.77;;
9763;SDS011;4921;43.214;27.936;2022-12-07T01:00:49;6.67;;;2.70;;
9763;SDS011;4921;43.214;27.936;2022-12-07T01:03:16;5.17;;;2.00;;
9763;SDS011;4921;43.214;27.936;2022-12-07T01:05:50;5.30;;;2.30;;
9763;SDS011;4921;43.214;27.936;2022-12-07T01:08:18;4.33;;;2.00;;
9763;SDS011;4921;43.214;27.936;2022-12-07T01:10:45;3.83;;;2.20;;
9763;SDS011;4921;43.214;27.936;2022-12-07T01:13:14;6.13;;;2.77;;
9763;SDS011;4921;43.214;27.936;2022-12-07T01:15:42;3.27;;;2.60;;
9763;SDS011;4921;43.214;27.936;2022-12-07T01:18:10;4.00;;;2.40;;
9763;SDS011;4921;43.214;27.936;2022-12-07T01:20:37;4.67;;;3.20;;
9763;SDS011;4921;43.214;27.936;2022-12-07T01:23:04;3.33;;;3.00;;
9763;SDS011;4921;43.214;27.936;2022-12-07T01:25:31;3.90;;;2.33;;
9763;SDS011;4921;43.214;27.936;2022-12-07T01:27:58;3.17;;;2.77;;
9763;SDS011;4921;43.214;27.936;2022-12-07T01:30:26;2.83;;;2.17;;
9763;SDS011;4921;43.214;27.936;2022-12-07T01:32:54;3.37;;;2.17;;
9763;SDS011;4921;43.214;27.936;2022-12-07T01:35:21;2.50;;;2.00;;
9763;SDS011;4921;43.214;27.936;2022-12-07T01:37:48;2.37;;;2.00;;
9763;SDS011;4921;43.214;27.936;2022-12-07T01:40:15;4.30;;;2.17;;
9763;SDS011;4921;43.214;27.936;2022-12-07T01:42:42;4.03;;;2.33;;
9763;SDS011;4921;43.214;27.936;2022-12-07T01:48:11;2.40;;;2.20;;
9763;SDS011;4921;43.214;27.936;2022-12-07T01:50:41;2.80;;;2.30;;
9763;SDS011;4921;43.214;27.936;2022-12-07T01:53:10;2.17;;;2.07;;
9763;SDS011;4921;43.214;27.936;2022-12-07T01:55:39;3.53;;;2.80;;
9763;SDS011;4921;43.214;27.936;2022-12-07T01:58:10;2.57;;;2.20;;
9763;SDS011;4921;43.214;27.936;2022-12-07T02:00:38;6.17;;;3.07;;
9763;SDS011;4921;43.214;27.936;2022-12-07T02:03:08;2.33;;;2.10;;
9763;SDS011;4921;43.214;27.936;2022-12-07T02:05:38;4.97;;;2.70;;
9763;SDS011;4921;43.214;27.936;2022-12-07T02:08:07;3.50;;;2.60;;
9763;SDS011;4921;43.214;27.936;2022-12-07T02:10:37;2.80;;;2.60;;
9763;SDS011;4921;43.214;27.936;2022-12-07T02:13:04;3.47;;;3.03;;
9763;SDS011;4921;43.214;27.936;2022-12-07T02:18:38;3.90;;;2.63;;
9763;SDS011;4921;43.214;27.936;2022-12-07T02:21:24;3.93;;;2.87;;
9763;SDS011;4921;43.214;27.936;2022-12-07T02:24:05;5.40;;;3.10;;
9763;SDS011;4921;43.214;27.936;2022-12-07T02:29:54;4.17;;;3.07;;
9763;SDS011;4921;43.214;27.936;2022-12-07T02:32:26;5.20;;;3.10;;
9763;SDS011;4921;43.214;27.936;2022-12-07T02:35:02;3.53;;;3.23;;
9763;SDS011;4921;43.214;27.936;2022-12-07T02:37:34;3.77;;;3.07;;
9763;SDS011;4921;43.214;27.936;2022-12-07T02:40:06;3.90;;;3.50;;
9763;SDS011;4921;43.214;27.936;2022-12-07T02:42:40;4.57;;;4.03;;
9763;SDS011;4921;43.214;27.936;2022-12-07T02:45:12;5.83;;;3.97;;
9763;SDS011;4921;43.214;27.936;2022-12-07T02:47:42;3.87;;;3.57;;
9763;SDS011;4921;43.214;27.936;2022-12-07T02:50:11;3.80;;;3.40;;
9763;SDS011;4921;43.214;27.936;2022-12-07T02:52:38;4.27;;;3.33;;
9763;SDS011;4921;43.214;27.936;2022-12-07T02:55:05;3.67;;;3.37;;
9763;SDS011;4921;43.214;27.936;2022-12-07T02:57:38;4.00;;;3.70;;
9763;SDS011;4921;43.214;27.936;2022-12-07T03:00:17;6.40;;;4.20;;
9763;SDS011;4921;43.214;27.936;2022-12-07T03:02:53;4.07;;;3.70;;
9763;SDS011;4921;43.214;27.936;2022-12-07T03:05:29;4.40;;;4.00;;
9763;SDS011;4921;43.214;27.936;2022-12-07T03:08:07;4.63;;;4.20;;
9763;SDS011;4921;43.214;27.936;2022-12-07T03:10:40;4.47;;;4.07;;
9763;SDS011;4921;43.214;27.936;2022-12-07T03:13:16;5.00;;;4.53;;
9763;SDS011;4921;43.214;27.936;2022-12-07T03:15:51;4.87;;;3.90;;
9763;SDS011;4921;43.214;27.936;2022-12-07T03:18:24;4.87;;;4.40;;
9763;SDS011;4921;43.214;27.936;2022-12-07T03:20:55;4.60;;;4.20;;
9763;SDS011;4921;43.214;27.936;2022-12-07T03:23:27;4.53;;;4.10;;
9763;SDS011;4921;43.214;27.936;2022-12-07T03:25:58;5.70;;;4.60;;
9763;SDS011;4921;43.214;27.936;2022-12-07T03:28:28;5.40;;;4.60;;
9763;SDS011;4921;43.214;27.936;2022-12-07T03:31:01;6.87;;;4.40;;
9763;SDS011;4921;43.214;27.936;2022-12-07T03:33:38;5.23;;;4.73;;
9763;SDS011;4921;43.214;27.936;2022-12-07T03:36:08;8.10;;;4.97;;
9763;SDS011;4921;43.214;27.936;2022-12-07T03:38:42;4.83;;;4.33;;
9763;SDS011;4921;43.214;27.936;2022-12-07T03:41:14;5.37;;;4.53;;
9763;SDS011;4921;43.214;27.936;2022-12-07T03:43:44;5.67;;;5.17;;
9763;SDS011;4921;43.214;27.936;2022-12-07T03:46:16;6.10;;;5.20;;
9763;SDS011;4921;43.214;27.936;2022-12-07T03:48:46;5.50;;;5.00;;
9763;SDS011;4921;43.214;27.936;2022-12-07T03:51:21;5.70;;;5.07;;
9763;SDS011;4921;43.214;27.936;2022-12-07T03:53:53;8.60;;;5.37;;
9763;SDS011;4921;43.214;27.936;2022-12-07T03:56:25;7.63;;;5.30;;
9763;SDS011;4921;43.214;27.936;2022-12-07T03:58:54;5.83;;;4.90;;
9763;SDS011;4921;43.214;27.936;2022-12-07T04:01:23;5.67;;;5.10;;
9763;SDS011;4921;43.214;27.936;2022-12-07T04:03:51;7.43;;;5.60;;
9763;SDS011;4921;43.214;27.936;2022-12-07T04:06:18;6.20;;;4.67;;
9763;SDS011;4921;43.214;27.936;2022-12-07T04:08:45;5.23;;;4.80;;
9763;SDS011;4921;43.214;27.936;2022-12-07T04:11:11;5.63;;;4.93;;
9763;SDS011;4921;43.214;27.936;2022-12-07T04:13:38;6.00;;;5.00;;
9763;SDS011;4921;43.214;27.936;2022-12-07T04:16:19;9.33;;;5.10;;
9763;SDS011;4921;43.214;27.936;2022-12-07T04:18:47;5.70;;;5.20;;
9763;SDS011;4921;43.214;27.936;2022-12-07T04:21:14;6.37;;;4.93;;
9763;SDS011;4921;43.214;27.936;2022-12-07T04:23:41;7.60;;;5.17;;
9763;SDS011;4921;43.214;27.936;2022-12-07T04:26:08;9.07;;;5.43;;
9763;SDS011;4921;43.214;27.936;2022-12-07T04:28:35;5.27;;;4.77;;
9763;SDS011;4921;43.214;27.936;2022-12-07T04:31:02;5.77;;;5.20;;
9763;SDS011;4921;43.214;27.936;2022-12-07T04:33:29;5.83;;;5.33;;
9763;SDS011;4921;43.214;27.936;2022-12-07T04:35:57;5.80;;;5.30;;
9763;SDS011;4921;43.214;27.936;2022-12-07T04:38:24;9.10;;;5.83;;
9763;SDS011;4921;43.214;27.936;2022-12-07T04:40:51;7.63;;;6.20;;
9763;SDS011;4921;43.214;27.936;2022-12-07T04:43:17;7.40;;;5.93;;
9763;SDS011;4921;43.214;27.936;2022-12-07T04:45:45;6.57;;;6.00;;
9763;SDS011;4921;43.214;27.936;2022-12-07T04:48:13;5.97;;;5.37;;
9763;SDS011;4921;43.214;27.936;2022-12-07T04:50:40;7.57;;;6.60;;
9763;SDS011;4921;43.214;27.936;2022-12-07T04:53:08;10.53;;;6.60;;
9763;SDS011;4921;43.214;27.936;2022-12-07T04:55:35;7.60;;;5.93;;
9763;SDS011;4921;43.214;27.936;2022-12-07T04:58:02;8.57;;;6.47;;
9763;SDS011;4921;43.214;27.936;2022-12-07T05:00:29;8.13;;;6.50;;
9763;SDS011;4921;43.214;27.936;2022-12-07T05:02:56;8.37;;;6.20;;
9763;SDS011;4921;43.214;27.936;2022-12-07T05:05:23;7.20;;;6.13;;
9763;SDS011;4921;43.214;27.936;2022-12-07T05:07:50;8.17;;;6.70;;
9763;SDS011;4921;43.214;27.936;2022-12-07T05:10:18;7.53;;;6.30;;
9763;SDS011;4921;43.214;27.936;2022-12-07T05:12:45;9.90;;;7.20;;
9763;SDS011;4921;43.214;27.936;2022-12-07T05:15:12;10.57;;;6.97;;
9763;SDS011;4921;43.214;27.936;2022-12-07T05:17:40;10.27;;;7.43;;
9763;SDS011;4921;43.214;27.936;2022-12-07T05:20:07;10.07;;;7.30;;
9763;SDS011;4921;43.214;27.936;2022-12-07T05:22:35;7.93;;;7.13;;
9763;SDS011;4921;43.214;27.936;2022-12-07T05:25:02;11.17;;;8.00;;
9763;SDS011;4921;43.214;27.936;2022-12-07T05:27:30;8.23;;;7.43;;
9763;SDS011;4921;43.214;27.936;2022-12-07T05:29:57;10.20;;;9.13;;
9763;SDS011;4921;43.214;27.936;2022-12-07T05:32:24;11.20;;;8.60;;
9763;SDS011;4921;43.214;27.936;2022-12-07T05:34:51;12.03;;;8.80;;
9763;SDS011;4921;43.214;27.936;2022-12-07T05:37:19;10.37;;;9.17;;
9763;SDS011;4921;43.214;27.936;2022-12-07T05:39:46;12.70;;;9.73;;
9763;SDS011;4921;43.214;27.936;2022-12-07T05:42:13;12.67;;;9.43;;
9763;SDS011;4921;43.214;27.936;2022-12-07T05:44:43;15.03;;;9.63;;
9763;SDS011;4921;43.214;27.936;2022-12-07T05:47:11;12.00;;;8.93;;
9763;SDS011;4921;43.214;27.936;2022-12-07T05:49:38;9.73;;;8.73;;
9763;SDS011;4921;43.214;27.936;2022-12-07T05:52:05;10.40;;;9.20;;
9763;SDS011;4921;43.214;27.936;2022-12-07T05:54:32;12.20;;;9.90;;
9763;SDS011;4921;43.214;27.936;2022-12-07T05:56:59;11.90;;;10.50;;
9763;SDS011;4921;43.214;27.936;2022-12-07T05:59:26;14.07;;;10.40;;
9763;SDS011;4921;43.214;27.936;2022-12-07T06:01:54;12.97;;;10.47;;
9763;SDS011;4921;43.214;27.936;2022-12-07T06:04:23;11.63;;;10.33;;
9763;SDS011;4921;43.214;27.936;2022-12-07T06:06:51;19.00;;;11.83;;
9763;SDS011;4921;43.214;27.936;2022-12-07T06:09:18;12.00;;;10.50;;
9763;SDS011;4921;43.214;27.936;2022-12-07T06:11:46;18.90;;;12.07;;
9763;SDS011;4921;43.214;27.936;2022-12-07T06:14:30;14.50;;;11.83;;
9763;SDS011;4921;43.214;27.936;2022-12-07T06:16:59;13.93;;;12.03;;
9763;SDS011;4921;43.214;27.936;2022-12-07T06:19:26;15.70;;;12.30;;
9763;SDS011;4921;43.214;27.936;2022-12-07T06:21:53;14.97;;;11.47;;
9763;SDS011;4921;43.214;27.936;2022-12-07T06:24:20;16.40;;;12.17;;
9763;SDS011;4921;43.214;27.936;2022-12-07T06:26:48;17.63;;;13.03;;
9763;SDS011;4921;43.214;27.936;2022-12-07T06:29:15;17.73;;;12.57;;
9763;SDS011;4921;43.214;27.936;2022-12-07T06:31:43;18.73;;;13.57;;
9763;SDS011;4921;43.214;27.936;2022-12-07T06:34:12;18.57;;;13.77;;
9763;SDS011;4921;43.214;27.936;2022-12-07T06:36:42;19.00;;;14.97;;
9763;SDS011;4921;43.214;27.936;2022-12-07T06:39:09;21.53;;;15.67;;
9763;SDS011;4921;43.214;27.936;2022-12-07T06:41:39;20.97;;;15.40;;
9763;SDS011;4921;43.214;27.936;2022-12-07T06:44:06;20.53;;;16.13;;
9763;SDS011;4921;43.214;27.936;2022-12-07T06:46:33;19.03;;;16.53;;
9763;SDS011;4921;43.214;27.936;2022-12-07T06:49:01;22.53;;;16.20;;
9763;SDS011;4921;43.214;27.936;2022-12-07T06:51:30;19.07;;;16.20;;
9763;SDS011;4921;43.214;27.936;2022-12-07T06:53:57;21.87;;;16.83;;
9763;SDS011;4921;43.214;27.936;2022-12-07T06:56:24;22.87;;;15.10;;
9763;SDS011;4921;43.214;27.936;2022-12-07T06:58:50;23.73;;;16.53;;
9763;SDS011;4921;43.214;27.936;2022-12-07T07:01:18;19.20;;;15.83;;
9763;SDS011;4921;43.214;27.936;2022-12-07T07:03:45;18.43;;;14.97;;
9763;SDS011;4921;43.214;27.936;2022-12-07T07:06:12;22.17;;;16.00;;
9763;SDS011;4921;43.214;27.936;2022-12-07T07:08:41;21.77;;;15.30;;
9763;SDS011;4921;43.214;27.936;2022-12-07T07:11:09;20.43;;;15.50;;
9763;SDS011;4921;43.214;27.936;2022-12-07T07:13:36;17.07;;;15.00;;
9763;SDS011;4921;43.214;27.936;2022-12-07T07:16:04;22.53;;;16.43;;
9763;SDS011;4921;43.214;27.936;2022-12-07T07:18:31;23.47;;;16.13;;
9763;SDS011;4921;43.214;27.936;2022-12-07T07:20:58;19.43;;;15.70;;
9763;SDS011;4921;43.214;27.936;2022-12-07T07:23:26;21.03;;;16.63;;
9763;SDS011;4921;43.214;27.936;2022-12-07T07:25:54;22.47;;;14.10;;
9763;SDS011;4921;43.214;27.936;2022-12-07T07:28:21;17.77;;;14.07;;
9763;SDS011;4921;43.214;27.936;2022-12-07T07:30:48;16.83;;;13.87;;
9763;SDS011;4921;43.214;27.936;2022-12-07T07:33:15;19.27;;;14.13;;
9763;SDS011;4921;43.214;27.936;2022-12-07T07:35:42;17.13;;;13.00;;
9763;SDS011;4921;43.214;27.936;2022-12-07T07:38:09;15.50;;;12.77;;
9763;SDS011;4921;43.214;27.936;2022-12-07T07:40:36;18.03;;;11.70;;
9763;SDS011;4921;43.214;27.936;2022-12-07T07:43:04;14.27;;;11.10;;
9763;SDS011;4921;43.214;27.936;2022-12-07T07:45:31;13.43;;;11.03;;
9763;SDS011;4921;43.214;27.936;2022-12-07T07:47:58;16.50;;;11.50;;
9763;SDS011;4921;43.214;27.936;2022-12-07T07:50:25;12.70;;;10.07;;
9763;SDS011;4921;43.214;27.936;2022-12-07T07:52:52;10.50;;;9.07;;
9763;SDS011;4921;43.214;27.936;2022-12-07T07:55:19;11.67;;;7.90;;
9763;SDS011;4921;43.214;27.936;2022-12-07T07:57:46;11.37;;;8.30;;
9763;SDS011;4921;43.214;27.936;2022-12-07T08:00:14;10.00;;;8.27;;
9763;SDS011;4921;43.214;27.936;2022-12-07T08:02:42;11.17;;;8.60;;
9763;SDS011;4921;43.214;27.936;2022-12-07T08:05:11;8.80;;;7.90;;
9763;SDS011;4921;43.214;27.936;2022-12-07T08:07:39;9.03;;;7.40;;
9763;SDS011;4921;43.214;27.936;2022-12-07T08:10:08;10.87;;;8.50;;
9763;SDS011;4921;43.214;27.936;2022-12-07T08:12:37;12.57;;;8.23;;
9763;SDS011;4921;43.214;27.936;2022-12-07T08:15:27;11.83;;;7.60;;
9763;SDS011;4921;43.214;27.936;2022-12-07T08:17:54;8.13;;;7.33;;
9763;SDS011;4921;43.214;27.936;2022-12-07T08:20:21;9.30;;;8.10;;
9763;SDS011;4921;43.214;27.936;2022-12-07T08:22:48;11.43;;;7.90;;
9763;SDS011;4921;43.214;27.936;2022-12-07T08:25:15;7.50;;;6.70;;
9763;SDS011;4921;43.214;27.936;2022-12-07T08:27:43;8.77;;;7.57;;
9763;SDS011;4921;43.214;27.936;2022-12-07T08:30:10;10.00;;;7.53;;
9763;SDS011;4921;43.214;27.936;2022-12-07T08:32:38;10.70;;;7.63;;
9763;SDS011;4921;43.214;27.936;2022-12-07T08:35:06;11.37;;;7.40;;
9763;SDS011;4921;43.214;27.936;2022-12-07T08:37:34;9.60;;;7.17;;
9763;SDS011;4921;43.214;27.936;2022-12-07T08:40:00;9.67;;;6.87;;
9763;SDS011;4921;43.214;27.936;2022-12-07T08:42:27;11.13;;;7.50;;
9763;SDS011;4921;43.214;27.936;2022-12-07T08:45:02;11.30;;;7.50;;
9763;SDS011;4921;43.214;27.936;2022-12-07T08:47:30;8.83;;;6.47;;
9763;SDS011;4921;43.214;27.936;2022-12-07T08:50:00;11.40;;;7.13;;
9763;SDS011;4921;43.214;27.936;2022-12-07T08:52:29;10.83;;;6.90;;
9763;SDS011;4921;43.214;27.936;2022-12-07T08:54:56;9.47;;;7.17;;
9763;SDS011;4921;43.214;27.936;2022-12-07T08:57:24;7.40;;;6.70;;
9763;SDS011;4921;43.214;27.936;2022-12-07T08:59:52;8.20;;;6.17;;
9763;SDS011;4921;43.214;27.936;2022-12-07T09:02:20;8.43;;;6.80;;
9763;SDS011;4921;43.214;27.936;2022-12-07T09:04:46;10.83;;;6.57;;
9763;SDS011;4921;43.214;27.936;2022-12-07T09:07:15;7.60;;;6.10;;
9763;SDS011;4921;43.214;27.936;2022-12-07T09:09:42;6.50;;;5.90;;
9763;SDS011;4921;43.214;27.936;2022-12-07T09:12:09;8.67;;;6.43;;
9763;SDS011;4921;43.214;27.936;2022-12-07T09:14:36;9.53;;;6.80;;
9763;SDS011;4921;43.214;27.936;2022-12-07T09:17:06;7.77;;;6.57;;
9763;SDS011;4921;43.214;27.936;2022-12-07T09:19:34;9.23;;;7.20;;
9763;SDS011;4921;43.214;27.936;2022-12-07T09:22:01;11.47;;;6.37;;
9763;SDS011;4921;43.214;27.936;2022-12-07T09:24:29;7.90;;;7.10;;
9763;SDS011;4921;43.214;27.936;2022-12-07T09:26:56;8.67;;;6.07;;
9763;SDS011;4921;43.214;27.936;2022-12-07T09:29:23;9.90;;;6.17;;
9763;SDS011;4921;43.214;27.936;2022-12-07T09:31:51;9.03;;;6.20;;
9763;SDS011;4921;43.214;27.936;2022-12-07T09:34:18;8.40;;;6.13;;
9763;SDS011;4921;43.214;27.936;2022-12-07T09:36:45;7.97;;;6.37;;
9763;SDS011;4921;43.214;27.936;2022-12-07T09:39:12;9.27;;;6.30;;
9763;SDS011;4921;43.214;27.936;2022-12-07T09:41:40;7.77;;;6.20;;
9763;SDS011;4921;43.214;27.936;2022-12-07T09:44:11;8.33;;;6.83;;
9763;SDS011;4921;43.214;27.936;2022-12-07T09:46:40;8.83;;;6.40;;
9763;SDS011;4921;43.214;27.936;2022-12-07T09:49:10;7.10;;;6.23;;
9763;SDS011;4921;43.214;27.936;2022-12-07T09:51:39;8.77;;;6.93;;
9763;SDS011;4921;43.214;27.936;2022-12-07T09:54:07;7.63;;;6.83;;
9763;SDS011;4921;43.214;27.936;2022-12-07T09:56:37;9.33;;;7.00;;
9763;SDS011;4921;43.214;27.936;2022-12-07T09:59:06;7.10;;;6.20;;
9763;SDS011;4921;43.214;27.936;2022-12-07T10:01:39;7.50;;;6.13;;
9763;SDS011;4921;43.214;27.936;2022-12-07T10:04:09;7.97;;;6.93;;
9763;SDS011;4921;43.214;27.936;2022-12-07T10:06:39;11.63;;;6.73;;
9763;SDS011;4921;43.214;27.936;2022-12-07T10:09:10;10.53;;;6.70;;
9763;SDS011;4921;43.214;27.936;2022-12-07T10:14:29;8.83;;;7.03;;
9763;SDS011;4921;43.214;27.936;2022-12-07T10:16:58;13.63;;;7.67;;
9763;SDS011;4921;43.214;27.936;2022-12-07T10:19:25;14.73;;;7.60;;
9763;SDS011;4921;43.214;27.936;2022-12-07T10:22:01;10.47;;;7.30;;
9763;SDS011;4921;43.214;27.936;2022-12-07T10:24:31;11.07;;;7.63;;
9763;SDS011;4921;43.214;27.936;2022-12-07T10:26:58;11.37;;;7.07;;
9763;SDS011;4921;43.214;27.936;2022-12-07T10:29:29;9.77;;;6.80;;
9763;SDS011;4921;43.214;27.936;2022-12-07T10:31:57;10.93;;;7.23;;
9763;SDS011;4921;43.214;27.936;2022-12-07T10:34:27;10.43;;;6.27;;
9763;SDS011;4921;43.214;27.936;2022-12-07T10:37:07;13.57;;;8.07;;
9763;SDS011;4921;43.214;27.936;2022-12-07T10:39:42;7.53;;;6.77;;
9763;SDS011;4921;43.214;27.936;2022-12-07T10:42:20;8.47;;;7.53;;
9763;SDS011;4921;43.214;27.936;2022-12-07T10:47:36;8.33;;;6.77;;
9763;SDS011;4921;43.214;27.936;2022-12-07T10:53:17;9.17;;;7.10;;
9763;SDS011;4921;43.214;27.936;2022-12-07T10:56:16;9.13;;;7.23;;
9763;SDS011;4921;43.214;27.936;2022-12-07T10:59:00;10.30;;;7.27;;
9763;SDS011;4921;43.214;27.936;2022-12-07T11:01:48;13.87;;;7.80;;
9763;SDS011;4921;43.214;27.936;2022-12-07T11:04:25;9.83;;;7.67;;
9763;SDS011;4921;43.214;27.936;2022-12-07T11:07:01;12.23;;;9.07;;
9763;SDS011;4921;43.214;27.936;2022-12-07T11:12:36;12.43;;;9.07;;
9763;SDS011;4921;43.214;27.936;2022-12-07T11:15:16;11.30;;;7.90;;
9763;SDS011;4921;43.214;27.936;2022-12-07T11:17:51;14.40;;;8.30;;
9763;SDS011;4921;43.214;27.936;2022-12-07T11:20:29;11.47;;;7.87;;
9763;SDS011;4921;43.214;27.936;2022-12-07T11:23:10;8.80;;;6.70;;
9763;SDS011;4921;43.214;27.936;2022-12-07T11:25:46;7.03;;;6.33;;
9763;SDS011;4921;43.214;27.936;2022-12-07T11:28:22;9.20;;;6.90;;
9763;SDS011;4921;43.214;27.936;2022-12-07T11:31:03;8.83;;;6.90;;
9763;SDS011;4921;43.214;27.936;2022-12-07T11:33:41;8.47;;;5.83;;
9763;SDS011;4921;43.214;27.936;2022-12-07T11:36:17;8.67;;;5.90;;
9763;SDS011;4921;43.214;27.936;2022-12-07T11:38:58;6.70;;;5.97;;
9763;SDS011;4921;43.214;27.936;2022-12-07T11:41:28;9.23;;;6.60;;
9763;SDS011;4921;43.214;27.936;2022-12-07T11:44:00;7.73;;;6.07;;
9763;SDS011;4921;43.214;27.936;2022-12-07T11:46:36;8.47;;;6.43;;
9763;SDS011;4921;43.214;27.936;2022-12-07T11:49:15;7.47;;;6.30;;
9763;SDS011;4921;43.214;27.936;2022-12-07T11:51:51;7.57;;;6.60;;
9763;SDS011;4921;43.214;27.936;2022-12-07T11:54:23;14.50;;;7.90;;
9763;SDS011;4921;43.214;27.936;2022-12-07T11:56:54;9.73;;;7.03;;
9763;SDS011;4921;43.214;27.936;2022-12-07T11:59:27;8.23;;;7.53;;
9763;SDS011;4921;43.214;27.936;2022-12-07T12:02:00;17.03;;;7.17;;
9763;SDS011;4921;43.214;27.936;2022-12-07T12:04:46;9.80;;;7.40;;
9763;SDS011;4921;43.214;27.936;2022-12-07T12:07:21;11.27;;;7.30;;
9763;SDS011;4921;43.214;27.936;2022-12-07T12:09:51;11.00;;;7.43;;
9763;SDS011;4921;43.214;27.936;2022-12-07T12:12:31;9.17;;;7.07;;
9763;SDS011;4921;43.214;27.936;2022-12-07T12:21:02;10.90;;;7.43;;
9763;SDS011;4921;43.214;27.936;2022-12-07T12:23:35;9.30;;;8.00;;
9763;SDS011;4921;43.214;27.936;2022-12-07T12:26:07;8.13;;;7.27;;
9763;SDS011;4921;43.214;27.936;2022-12-07T12:28:49;12.10;;;7.53;;
9763;SDS011;4921;43.214;27.936;2022-12-07T12:31:29;12.60;;;8.00;;
9763;SDS011;4921;43.214;27.936;2022-12-07T12:34:02;9.60;;;7.40;;
9763;SDS011;4921;43.214;27.936;2022-12-07T12:36:44;10.60;;;8.50;;
9763;SDS011;4921;43.214;27.936;2022-12-07T12:39:13;15.20;;;9.10;;
9763;SDS011;4921;43.214;27.936;2022-12-07T12:41:52;14.67;;;9.37;;
9763;SDS011;4921;43.214;27.936;2022-12-07T12:50:23;11.87;;;8.40;;
9763;SDS011;4921;43.214;27.936;2022-12-07T13:01:53;12.33;;;7.93;;
9763;SDS011;4921;43.214;27.936;2022-12-07T13:04:27;8.93;;;7.77;;
9763;SDS011;4921;43.214;27.936;2022-12-07T13:07:13;12.27;;;8.10;;
9763;SDS011;4921;43.214;27.936;2022-12-07T13:10:02;11.80;;;7.97;;
9763;SDS011;4921;43.214;27.936;2022-12-07T13:12:29;12.13;;;7.80;;
9763;SDS011;4921;43.214;27.936;2022-12-07T13:14:58;13.67;;;7.90;;
9763;SDS011;4921;43.214;27.936;2022-12-07T13:20:40;13.20;;;7.90;;
9763;SDS011;4921;43.214;27.936;2022-12-07T13:23:10;9.93;;;7.57;;
9763;SDS011;4921;43.214;27.936;2022-12-07T13:25:43;11.77;;;7.90;;
9763;SDS011;4921;43.214;27.936;2022-12-07T13:28:16;8.70;;;7.20;;
9763;SDS011;4921;43.214;27.936;2022-12-07T13:30:46;9.23;;;8.17;;
9763;SDS011;4921;43.214;27.936;2022-12-07T13:33:20;11.20;;;8.27;;
9763;SDS011;4921;43.214;27.936;2022-12-07T13:35:47;12.00;;;7.97;;
9763;SDS011;4921;43.214;27.936;2022-12-07T13:38:25;8.40;;;6.97;;
9763;SDS011;4921;43.214;27.936;2022-12-07T13:41:03;9.97;;;7.73;;
9763;SDS011;4921;43.214;27.936;2022-12-07T13:43:51;8.50;;;7.70;;
9763;SDS011;4921;43.214;27.936;2022-12-07T13:46:31;11.03;;;8.17;;
9763;SDS011;4921;43.214;27.936;2022-12-07T13:49:13;10.63;;;9.20;;
9763;SDS011;4921;43.214;27.936;2022-12-07T13:51:46;11.53;;;9.63;;
9763;SDS011;4921;43.214;27.936;2022-12-07T13:54:14;10.17;;;8.70;;
9763;SDS011;4921;43.214;27.936;2022-12-07T13:56:43;12.40;;;9.20;;
9763;SDS011;4921;43.214;27.936;2022-12-07T13:59:12;10.40;;;9.07;;
9763;SDS011;4921;43.214;27.936;2022-12-07T14:01:42;11.37;;;9.00;;
9763;SDS011;4921;43.214;27.936;2022-12-07T14:07:01;11.83;;;8.53;;
9763;SDS011;4921;43.214;27.936;2022-12-07T14:09:53;13.10;;;8.03;;
9763;SDS011;4921;43.214;27.936;2022-12-07T14:12:26;13.77;;;8.57;;
9763;SDS011;4921;43.214;27.936;2022-12-07T14:14:53;10.93;;;8.90;;
9763;SDS011;4921;43.214;27.936;2022-12-07T14:17:22;15.33;;;9.03;;
9763;SDS011;4921;43.214;27.936;2022-12-07T14:19:51;11.87;;;8.37;;
9763;SDS011;4921;43.214;27.936;2022-12-07T14:22:24;12.33;;;9.23;;
9763;SDS011;4921;43.214;27.936;2022-12-07T14:24:59;14.10;;;9.40;;
9763;SDS011;4921;43.214;27.936;2022-12-07T14:27:54;15.73;;;9.57;;
9763;SDS011;4921;43.214;27.936;2022-12-07T14:30:23;20.30;;;9.80;;
9763;SDS011;4921;43.214;27.936;2022-12-07T14:32:53;10.33;;;8.83;;
9763;SDS011;4921;43.214;27.936;2022-12-07T14:35:22;12.10;;;9.53;;
9763;SDS011;4921;43.214;27.936;2022-12-07T14:37:49;17.43;;;9.23;;
9763;SDS011;4921;43.214;27.936;2022-12-07T14:40:17;16.67;;;9.63;;
9763;SDS011;4921;43.214;27.936;2022-12-07T14:42:45;15.17;;;10.07;;
9763;SDS011;4921;43.214;27.936;2022-12-07T14:45:18;17.50;;;10.00;;
9763;SDS011;4921;43.214;27.936;2022-12-07T14:47:46;15.03;;;10.50;;
9763;SDS011;4921;43.214;27.936;2022-12-07T14:50:14;12.87;;;9.57;;
9763;SDS011;4921;43.214;27.936;2022-12-07T14:52:43;18.80;;;10.43;;
9763;SDS011;4921;43.214;27.936;2022-12-07T14:55:13;18.40;;;9.80;;
9763;SDS011;4921;43.214;27.936;2022-12-07T14:57:43;16.63;;;9.80;;
9763;SDS011;4921;43.214;27.936;2022-12-07T15:00:13;15.80;;;9.53;;
9763;SDS011;4921;43.214;27.936;2022-12-07T15:02:43;16.77;;;10.37;;
9763;SDS011;4921;43.214;27.936;2022-12-07T15:05:10;13.67;;;9.67;;
9763;SDS011;4921;43.214;27.936;2022-12-07T15:07:38;18.37;;;10.10;;
9763;SDS011;4921;43.214;27.936;2022-12-07T15:10:06;20.13;;;10.80;;
9763;SDS011;4921;43.214;27.936;2022-12-07T15:12:40;18.17;;;10.80;;
9763;SDS011;4921;43.214;27.936;2022-12-07T15:15:07;16.23;;;10.03;;
9763;SDS011;4921;43.214;27.936;2022-12-07T15:17:34;14.90;;;10.87;;
9763;SDS011;4921;43.214;27.936;2022-12-07T15:20:03;12.57;;;10.27;;
9763;SDS011;4921;43.214;27.936;2022-12-07T15:22:31;17.23;;;10.57;;
9763;SDS011;4921;43.214;27.936;2022-12-07T15:24:59;14.53;;;11.10;;
9763;SDS011;4921;43.214;27.936;2022-12-07T15:27:26;16.27;;;10.93;;
9763;SDS011;4921;43.214;27.936;2022-12-07T15:29:53;17.27;;;10.93;;
9763;SDS011;4921;43.214;27.936;2022-12-07T15:32:20;18.20;;;11.13;;
9763;SDS011;4921;43.214;27.936;2022-12-07T15:34:48;19.07;;;11.20;;
9763;SDS011;4921;43.214;27.936;2022-12-07T15:37:16;14.30;;;10.47;;
9763;SDS011;4921;43.214;27.936;2022-12-07T15:39:43;18.03;;;12.30;;
9763;SDS011;4921;43.214;27.936;2022-12-07T15:42:10;18.17;;;10.87;;
9763;SDS011;4921;43.214;27.936;2022-12-07T15:44:37;12.17;;;10.03;;
9763;SDS011;4921;43.214;27.936;2022-12-07T15:47:21;13.30;;;10.73;;
9763;SDS011;4921;43.214;27.936;2022-12-07T15:49:48;14.93;;;10.43;;
9763;SDS011;4921;43.214;27.936;2022-12-07T15:52:15;18.77;;;11.67;;
9763;SDS011;4921;43.214;27.936;2022-12-07T15:54:44;17.83;;;10.33;;
9763;SDS011;4921;43.214;27.936;2022-12-07T15:57:12;17.00;;;11.57;;
9763;SDS011;4921;43.214;27.936;2022-12-07T15:59:39;17.10;;;10.47;;